createdAt,value
2022-12-12T00:04:00.097Z,72.85
2022-12-12T00:09:02.807Z,75.78
2022-12-12T00:14:03.638Z,73.00
2022-12-12T00:19:04.397Z,66.85
2022-12-12T00:24:06.151Z,71.07
2022-12-12T00:29:07.165Z,73.37
2022-12-12T00:34:07.904Z,73.28
2022-12-12T00:39:13.774Z,75.18
2022-12-12T00:44:18.396Z,72.85
2022-12-12T00:49:19.255Z,64.47
2022-12-12T00:54:20.271Z,70.05
2022-12-12T00:59:21.025Z,74.07
2022-12-12T01:04:21.837Z,70.18
2022-12-12T01:09:22.782Z,73.95
2022-12-12T01:14:23.677Z,66.30
2022-12-12T01:19:24.455Z,55.50
2022-12-12T01:24:25.199Z,54.00
2022-12-12T01:29:25.965Z,52.38
2022-12-12T01:34:26.999Z,57.72
2022-12-12T01:39:28.023Z,28.67
2022-12-12T01:45:02.819Z,28.23
2022-12-12T01:50:08.393Z,24.77
2022-12-12T01:55:16.654Z,30.17
2022-12-12T02:00:18.558Z,30.15
2022-12-12T02:05:25.866Z,29.98
2022-12-12T02:10:27.158Z,28.17
2022-12-12T02:15:42.930Z,34.25
2022-12-12T02:20:59.397Z,37.75
2022-12-12T02:26:46.782Z,40.42
2022-12-12T02:34:03.549Z,35.00
2022-12-12T02:39:22.305Z,35.72
2022-12-12T02:44:39.657Z,32.90
2022-12-12T02:49:48.061Z,30.92
2022-12-12T02:54:48.921Z,29.00
2022-12-12T02:59:57.178Z,27.52
2022-12-12T03:07:04.801Z,27.83
2022-12-12T03:12:37.759Z,30.48
2022-12-12T03:17:48.263Z,24.35
2022-12-12T03:23:08.235Z,22.55
2022-12-12T03:29:46.615Z,23.05
2022-12-12T03:35:02.517Z,23.27
2022-12-12T03:40:15.890Z,25.42
2022-12-12T03:45:26.022Z,22.65
2022-12-12T03:50:34.247Z,23.92
2022-12-12T03:58:47.938Z,23.05
2022-12-12T04:04:02.658Z,22.60
2022-12-12T04:09:26.032Z,22.42
2022-12-12T04:20:24.055Z,30.00
2022-12-12T04:26:11.995Z,32.83
2022-12-12T04:31:16.016Z,30.90
2022-12-12T04:36:20.377Z,19.67
2022-12-12T04:41:22.253Z,26.75
2022-12-12T04:46:27.831Z,21.12
2022-12-12T04:51:41.721Z,21.37
2022-12-12T04:56:45.321Z,23.67
2022-12-12T05:01:59.991Z,26.95
2022-12-12T05:07:09.220Z,25.65
2022-12-12T05:12:10.148Z,24.98
2022-12-12T05:17:15.265Z,45.05
2022-12-12T05:22:15.993Z,29.60
2022-12-12T05:27:16.831Z,24.63
2022-12-12T05:32:17.574Z,33.05
2022-12-12T05:37:18.397Z,30.55
2022-12-12T05:42:19.122Z,24.55
2022-12-12T05:47:19.898Z,20.27
2022-12-12T05:52:20.678Z,17.20
2022-12-12T05:57:21.907Z,16.98
2022-12-12T06:02:22.745Z,18.25
2022-12-12T06:07:24.460Z,17.20
2022-12-12T06:12:25.382Z,19.12
2022-12-12T06:17:32.757Z,20.35
2022-12-12T06:22:35.410Z,17.10
2022-12-12T06:27:36.475Z,21.90
2022-12-12T06:32:37.251Z,23.02
2022-12-12T06:37:39.114Z,23.67
2022-12-12T06:42:44.683Z,26.50
2022-12-12T06:47:50.245Z,21.73
2022-12-12T06:52:50.981Z,28.53
2022-12-12T06:57:51.824Z,17.65
2022-12-12T07:02:52.584Z,19.17
2022-12-12T07:07:54.000Z,19.27
2022-12-12T07:12:57.541Z,38.92
2022-12-12T07:17:58.617Z,43.47
2022-12-12T07:22:59.332Z,45.15
2022-12-12T07:28:00.183Z,57.05
2022-12-12T07:33:00.992Z,28.95
2022-12-12T07:38:02.642Z,31.48
2022-12-12T07:43:03.644Z,39.00
2022-12-12T07:48:04.787Z,57.92
2022-12-12T07:53:07.015Z,35.17
2022-12-12T07:58:07.969Z,29.83
2022-12-12T08:03:08.771Z,28.75
2022-12-12T08:08:10.233Z,23.55
2022-12-12T08:13:11.430Z,23.00
2022-12-12T08:18:12.218Z,21.00
2022-12-12T08:23:13.134Z,32.10
2022-12-12T08:28:14.635Z,66.35
2022-12-12T08:33:15.415Z,55.28
2022-12-12T08:38:16.173Z,32.80
2022-12-12T08:43:17.150Z,33.47
2022-12-12T08:48:17.883Z,29.85
2022-12-12T08:53:18.635Z,22.08
2022-12-12T08:58:20.349Z,23.20
2022-12-12T09:03:26.148Z,25.65
2022-12-12T09:08:30.133Z,27.10
2022-12-12T09:13:31.023Z,25.70
2022-12-12T09:18:31.915Z,18.70
2022-12-12T09:23:33.079Z,20.33
2022-12-12T09:28:34.504Z,27.20
2022-12-12T09:33:35.716Z,22.33
2022-12-12T09:38:36.515Z,17.35
2022-12-12T09:43:58.624Z,17.08
2022-12-12T09:50:32.251Z,15.38
2022-12-12T09:56:14.304Z,20.83
2022-12-12T10:04:02.633Z,23.33
2022-12-12T10:09:33.735Z,22.35
2022-12-12T10:14:42.499Z,21.70
2022-12-12T10:20:16.469Z,20.58
2022-12-12T10:25:55.717Z,18.37
2022-12-12T10:34:14.203Z,18.10
2022-12-12T10:39:44.751Z,21.45
2022-12-12T10:46:27.775Z,17.50
2022-12-12T10:51:30.203Z,16.60
2022-12-12T10:56:30.984Z,16.47
2022-12-12T11:07:18.635Z,21.37
2022-12-12T11:12:20.252Z,15.68
2022-12-12T11:17:28.102Z,31.80
2022-12-12T11:22:32.532Z,10.88
2022-12-12T11:27:40.252Z,12.48
2022-12-12T11:32:45.784Z,15.52
2022-12-12T11:37:49.216Z,17.15
2022-12-12T11:42:50.778Z,15.77
2022-12-12T11:47:52.135Z,19.58
2022-12-12T11:52:55.769Z,25.45
2022-12-12T11:58:15.774Z,23.62
2022-12-12T12:03:29.485Z,21.73
2022-12-12T12:09:03.132Z,29.65
2022-12-12T12:14:46.777Z,25.17
2022-12-12T12:20:03.705Z,21.70
2022-12-12T12:25:37.347Z,27.00
2022-12-12T12:33:39.244Z,23.50
2022-12-12T12:40:27.696Z,20.33
2022-12-12T12:45:44.948Z,17.67
2022-12-12T12:50:58.599Z,18.12
2022-12-12T12:56:08.164Z,27.20
2022-12-12T13:01:17.221Z,27.20
2022-12-12T13:06:25.015Z,20.05
2022-12-12T13:11:37.001Z,21.20
2022-12-12T13:16:39.936Z,22.40
2022-12-12T13:21:52.713Z,26.58
2022-12-12T13:27:21.809Z,30.35
2022-12-12T13:36:06.675Z,24.35
2022-12-12T13:41:09.240Z,19.00
2022-12-12T13:48:03.753Z,26.83
2022-12-12T13:53:17.165Z,23.15
2022-12-12T14:03:33.438Z,33.97
2022-12-12T14:08:37.164Z,20.75
2022-12-12T14:13:44.950Z,23.27
2022-12-12T14:19:07.929Z,28.52
2022-12-12T14:25:01.238Z,24.92
2022-12-12T14:30:16.804Z,27.85
2022-12-12T14:36:09.100Z,25.37
2022-12-12T14:41:15.664Z,30.65
2022-12-12T14:46:18.758Z,27.77
2022-12-12T14:56:40.129Z,31.98
2022-12-12T15:01:52.818Z,33.95
2022-12-12T15:07:02.638Z,32.97
2022-12-12T15:12:22.944Z,29.17
2022-12-12T15:17:30.367Z,31.77
2022-12-12T15:22:34.475Z,26.80
2022-12-12T15:27:47.028Z,25.83
2022-12-12T15:32:50.659Z,31.30
2022-12-12T15:38:00.165Z,33.13
2022-12-12T15:43:14.261Z,30.17
2022-12-12T15:48:16.714Z,34.10
2022-12-12T15:53:35.629Z,34.47
2022-12-12T15:58:48.981Z,35.30
2022-12-12T16:04:21.958Z,32.72
2022-12-12T16:09:24.958Z,34.10
2022-12-12T16:14:41.831Z,30.83
2022-12-12T16:20:06.688Z,37.28
2022-12-12T16:25:49.927Z,29.17
2022-12-12T16:31:04.337Z,28.75
2022-12-12T16:36:13.782Z,30.60
2022-12-12T16:41:16.953Z,39.17
2022-12-12T16:46:20.515Z,35.95
2022-12-12T16:51:27.674Z,56.13
2022-12-12T16:56:28.737Z,31.42
2022-12-12T17:01:33.407Z,30.73
2022-12-12T17:06:38.129Z,52.45
2022-12-12T17:11:38.891Z,33.25
2022-12-12T17:16:40.117Z,30.25
2022-12-12T17:21:40.908Z,36.38
2022-12-12T17:26:41.941Z,34.08
2022-12-12T17:31:42.801Z,35.83
2022-12-12T17:36:43.942Z,30.73
2022-12-12T17:41:44.675Z,43.42
2022-12-12T17:46:45.464Z,42.22
2022-12-12T17:51:46.187Z,54.13
2022-12-12T17:56:46.959Z,62.50
2022-12-12T18:01:53.012Z,35.28
2022-12-12T18:06:53.770Z,40.97
2022-12-12T18:11:54.533Z,48.53
2022-12-12T18:16:55.456Z,60.40
2022-12-12T18:22:01.646Z,59.13
2022-12-12T18:27:03.322Z,52.70
2022-12-12T18:32:04.588Z,47.25
2022-12-12T18:37:05.354Z,39.75
2022-12-12T18:42:06.680Z,32.13
2022-12-12T18:47:07.925Z,59.22
2022-12-12T18:52:08.705Z,63.25
2022-12-12T18:57:09.613Z,71.10
2022-12-12T19:02:14.349Z,69.62
2022-12-12T19:07:17.600Z,71.30
2022-12-12T19:17:25.222Z,75.95
2022-12-12T19:27:58.092Z,71.10
2022-12-12T19:33:00.346Z,63.85
2022-12-12T19:38:01.271Z,74.23
2022-12-12T19:43:02.644Z,68.78
2022-12-12T19:48:04.276Z,54.77
2022-12-12T19:53:05.021Z,64.47
2022-12-12T19:58:07.091Z,64.43
2022-12-12T20:03:07.918Z,69.93
2022-12-12T20:08:08.744Z,60.28
2022-12-12T20:13:10.719Z,60.25
2022-12-12T20:18:16.157Z,61.58
2022-12-12T20:23:17.252Z,67.85
2022-12-12T20:28:17.996Z,65.03
2022-12-12T20:33:18.850Z,70.03
2022-12-12T20:38:19.682Z,74.60
2022-12-12T20:43:20.853Z,72.72
2022-12-12T20:48:21.582Z,89.85
2022-12-12T20:53:22.788Z,80.78
2022-12-12T20:58:23.523Z,91.40
2022-12-12T21:03:24.694Z,84.13
2022-12-12T21:08:25.562Z,76.62
2022-12-12T21:13:26.481Z,86.43
2022-12-12T21:18:27.236Z,93.53
2022-12-12T21:23:28.903Z,84.95
2022-12-12T21:28:29.638Z,87.12
2022-12-12T21:33:30.517Z,83.10
2022-12-12T21:38:31.308Z,73.37
2022-12-12T21:43:32.386Z,80.97
2022-12-12T21:48:33.369Z,92.25
2022-12-12T21:53:35.081Z,89.13
2022-12-12T21:58:37.344Z,90.10
2022-12-12T22:03:38.559Z,77.17
2022-12-12T22:08:40.100Z,90.40
2022-12-12T22:13:41.901Z,92.32
2022-12-12T22:18:43.121Z,83.97
2022-12-12T22:23:45.885Z,84.57
2022-12-12T22:28:48.299Z,79.72
2022-12-12T22:33:58.759Z,81.15
2022-12-12T22:39:00.534Z,72.30
2022-12-12T22:44:04.338Z,72.80
2022-12-12T22:49:05.055Z,67.97
2022-12-12T22:54:05.907Z,75.10
2022-12-12T22:59:07.491Z,75.00
2022-12-12T23:04:11.674Z,72.87
2022-12-12T23:09:16.333Z,80.12
2022-12-12T23:14:20.854Z,88.85
2022-12-12T23:19:25.123Z,93.95
2022-12-12T23:24:25.944Z,85.07
2022-12-12T23:29:27.059Z,88.35
2022-12-12T23:34:29.443Z,89.80
2022-12-12T23:39:30.172Z,85.40
2022-12-12T23:44:31.459Z,93.15
2022-12-12T23:49:32.164Z,87.55
2022-12-12T23:54:34.196Z,99.62
2022-12-12T23:59:34.961Z,91.30
